Terminal Aerodrome Forecast
Issued by NWS Detroit/Pontiac, MI

Home | Current Version | Previous Version | Text Only | Print | Product List | Glossary On
Versions: 1 2 3 4 5 6 7 8 9 10 11 12 13 14 15 16 17 18 19 20 21 22 23 24 25 26 27 28 29 30 31
630
FTUS43 KDTX 302106 AAB
TAFDTW
TAF AMD
KDTW 302106Z 3021/3124 18006KT P6SM FEW050 BKN120
     FM302300 21005KT P6SM SCT060 BKN100
     FM310700 24005KT 5SM BR SCT030 BKN050 BKN080 PROB30 3108/3112
      2SM TSRA BR BKN022 OVC040CB
     FM311400 33005KT P6SM BKN022
     FM311800 34010KT P6SM BKN040=

USA.gov is the U.S. government's official web portal to all federal, state and local government web resources and services.